Time;durP1;ratioP1;P1;durP2;ratioP2;P2;SDS_P1;SDS_P2;PMS_P1;PMS_P2;Temp;Humidity;BMP_temperature;BMP_pressure;BME280_temperature;BME280_humidity;BME280_pressure;Samples;Min_cycle;Max_cycle;Signal;HPM_P1;HPM_P2
2021/05/05 05:02:22;;;;;;;24.40;11.43;;;;;;;-142.70;100.00;60390.16;4976044;24;20068;-75
2021/05/05 05:04:47;;;;;;;26.77;11.00;;;;;;;-142.70;100.00;60390.16;4746583;30;20411;-76
2021/05/05 05:07:13;;;;;;;10.60;9.63;;;;;;;-142.70;100.00;60390.16;4716872;30;20327;-76
2021/05/05 05:09:39;;;;;;;81.47;14.63;;;;;;;-142.70;100.00;60390.16;4731275;30;20135;-76
2021/05/05 05:12:05;;;;;;;11.35;9.93;;;;;;;-142.70;100.00;60390.16;4716438;30;20032;-76
2021/05/05 05:14:30;;;;;;;12.82;9.85;;;;;;;-142.70;100.00;60390.16;4717545;30;20044;-75
2021/05/05 05:16:56;;;;;;;9.23;8.52;;;;;;;-142.70;100.00;60390.16;4730230;30;20055;-75
2021/05/05 05:19:22;;;;;;;9.60;8.80;;;;;;;-142.70;100.00;60390.16;4702782;30;20051;-75
2021/05/05 05:21:47;;;;;;;35.88;10.07;;;;;;;-142.70;100.00;60390.16;4715616;30;20032;-75
2021/05/05 05:24:13;;;;;;;8.63;8.02;;;;;;;-142.70;100.00;60390.16;4717298;30;20089;-76
2021/05/05 05:26:38;;;;;;;17.38;9.52;;;;;;;-142.70;100.00;60390.16;4715634;30;20036;-76
2021/05/05 05:29:04;;;;;;;9.85;9.02;;;;;;;-142.70;100.00;60390.16;4731669;30;20521;-75
2021/05/05 05:31:29;;;;;;;12.50;8.52;;;;;;;-142.70;100.00;60390.16;4716529;30;20064;-75
2021/05/05 05:33:55;;;;;;;25.73;9.05;;;;;;;-142.70;100.00;60390.16;4730721;30;20024;-76
2021/05/05 05:36:21;;;;;;;9.30;8.50;;;;;;;-142.70;100.00;60390.16;4731744;30;20043;-75
2021/05/05 05:38:46;;;;;;;15.27;8.68;;;;;;;-142.70;100.00;60390.16;4730186;30;20453;-75
2021/05/05 05:41:12;;;;;;;17.35;9.07;;;;;;;-142.70;100.00;60390.16;4716944;30;20036;-76
2021/05/05 05:43:37;;;;;;;9.10;8.40;;;;;;;-142.70;100.00;60390.16;4715394;30;20036;-75
2021/05/05 05:46:03;;;;;;;8.75;8.05;;;;;;;-142.70;100.00;60390.16;4716885;30;20044;-76
2021/05/05 05:48:28;;;;;;;22.98;8.75;;;;;;;-142.70;100.00;60390.16;4716197;30;20029;-75
2021/05/05 05:50:54;;;;;;;8.88;7.70;;;;;;;-142.70;100.00;60390.16;4730373;30;20041;-75
2021/05/05 05:53:19;;;;;;;7.97;7.20;;;;;;;-142.70;100.00;60390.16;4749129;30;20051;-78
2021/05/05 05:55:44;;;;;;;7.53;5.18;;;;;;;-142.70;100.00;60390.16;4732970;30;20043;-78
2021/05/05 05:58:13;;;;;;;6.18;4.60;;;;;;;-142.70;100.00;60390.16;4719828;30;20039;-76
2021/05/05 06:00:38;;;;;;;5.53;4.67;;;;;;;-142.70;100.00;60390.16;4732280;30;20113;-75
2021/05/05 06:03:05;;;;;;;5.05;4.55;;;;;;;-142.70;100.00;60390.16;4737439;30;20484;-75
2021/05/05 06:05:34;;;;;;;4.28;3.88;;;;;;;-142.70;100.00;60390.16;4751525;30;20032;-74
2021/05/05 06:08:00;;;;;;;5.70;4.05;;;;;;;-142.70;100.00;60390.16;4736278;30;20032;-74
2021/05/05 06:10:26;;;;;;;5.15;4.40;;;;;;;-142.70;100.00;60390.16;4737112;30;20040;-75
2021/05/05 06:12:51;;;;;;;6.53;5.30;;;;;;;-142.70;100.00;60390.16;4750541;30;20446;-77
2021/05/05 06:15:17;;;;;;;5.57;5.13;;;;;;;-142.70;100.00;60390.16;4752404;30;20035;-77
2021/05/05 06:17:42;;;;;;;5.95;5.28;;;;;;;-142.70;100.00;60390.16;4735685;30;20078;-77
2021/05/05 06:20:09;;;;;;;24.80;7.15;;;;;;;-142.70;100.00;60390.16;4737980;30;20032;-76
2021/05/05 06:22:34;;;;;;;6.00;5.28;;;;;;;-142.70;100.00;60390.16;4735903;30;20040;-77
2021/05/05 06:25:01;;;;;;;9.55;5.68;;;;;;;-142.70;100.00;60390.16;4752455;30;20403;-77
2021/05/05 06:27:26;;;;;;;6.70;6.13;;;;;;;-142.70;100.00;60390.16;4751396;30;20046;-74
2021/05/05 06:29:51;;;;;;;10.70;6.57;;;;;;;-142.70;100.00;60390.16;4750617;30;20039;-77
2021/05/05 06:32:17;;;;;;;7.03;6.35;;;;;;;-142.70;100.00;60390.16;4751362;30;20047;-77
2021/05/05 06:34:42;;;;;;;6.65;6.05;;;;;;;-142.70;100.00;60390.16;4735944;30;20027;-75
2021/05/05 06:37:08;;;;;;;6.38;5.70;;;;;;;-142.70;100.00;60390.16;4736652;30;20047;-76
2021/05/05 06:39:33;;;;;;;7.03;5.65;;;;;;;-142.70;100.00;60390.16;4735504;30;20423;-76
2021/05/05 06:41:59;;;;;;;7.57;5.60;;;;;;;-142.70;100.00;60390.16;4752005;30;20039;-75
2021/05/05 06:44:24;;;;;;;6.45;5.80;;;;;;;-142.70;100.00;60390.16;4749924;30;20043;-77
2021/05/05 06:46:54;;;;;;;10.18;4.80;;;;;;;-142.70;100.00;60390.16;4751146;30;20081;-77
2021/05/05 06:49:20;;;;;;;7.40;5.22;;;;;;;-142.70;100.00;60390.16;4752161;30;20036;-77
2021/05/05 06:51:45;;;;;;;7.10;5.22;;;;;;;-142.70;100.00;60390.16;4735675;30;20039;-77
2021/05/05 06:54:11;;;;;;;5.80;4.80;;;;;;;-142.70;100.00;60390.16;4751782;30;20485;-77
2021/05/05 06:56:36;;;;;;;7.57;5.53;;;;;;;-142.70;100.00;60390.16;4749983;30;20039;-76
2021/05/05 06:59:02;;;;;;;5.95;5.45;;;;;;;-142.70;100.00;60390.16;4737081;30;20032;-77
2021/05/05 07:01:28;;;;;;;5.60;5.10;;;;;;;-142.70;100.00;60390.16;4732464;30;20110;-77
2021/05/05 07:03:53;;;;;;;5.88;5.35;;;;;;;-142.70;100.00;60390.16;4734033;30;20107;-77
2021/05/05 07:06:18;;;;;;;6.78;4.18;;;;;;;-142.70;100.00;60390.16;4749952;30;20036;-78
2021/05/05 07:08:44;;;;;;;10.70;4.97;;;;;;;-142.70;100.00;60390.16;4750692;30;20043;-78
2021/05/05 07:11:09;;;;;;;5.00;4.60;;;;;;;-142.70;100.00;60390.16;4722400;30;20031;-77
2021/05/05 07:13:35;;;;;;;6.78;4.70;;;;;;;-142.70;100.00;60390.16;4764505;30;20031;-76
2021/05/05 07:16:00;;;;;;;13.63;5.03;;;;;;;-142.70;100.00;60390.16;4736619;30;20036;-76
2021/05/05 07:18:26;;;;;;;10.82;5.25;;;;;;;-142.70;100.00;60390.16;4720523;30;20046;-77
2021/05/05 07:20:51;;;;;;;5.40;4.90;;;;;;;-142.70;100.00;60390.16;4751396;30;20101;-77
2021/05/05 07:23:17;;;;;;;5.97;4.07;;;;;;;-142.70;100.00;60390.16;4735167;30;20032;-77
2021/05/05 07:25:42;;;;;;;43.60;6.18;;;;;;;-142.70;100.00;60390.16;4750958;30;20051;-76
2021/05/05 07:28:08;;;;;;;4.50;4.10;;;;;;;-142.70;100.00;60390.16;4736139;30;20036;-77
2021/05/05 07:30:33;;;;;;;7.45;4.60;;;;;;;-142.70;100.00;60390.16;4735681;30;20510;-77
2021/05/05 07:32:59;;;;;;;21.73;4.80;;;;;;;-142.70;100.00;60390.16;4735932;30;20465;-78
2021/05/05 07:35:25;;;;;;;4.85;4.45;;;;;;;-142.70;100.00;60390.16;4721037;30;20051;-76
2021/05/05 07:45:36;;;;;;;5.57;4.95;;;;;;;-142.70;100.00;60390.16;4739141;30;20097;-77
2021/05/05 07:48:08;;;;;;;4.45;4.13;;;;;;;-142.70;100.00;60390.16;4751361;30;20494;-77
2021/05/05 07:50:33;;;;;;;7.32;4.93;;;;;;;-142.70;100.00;60390.16;4750859;30;20067;-74
2021/05/05 07:53:00;;;;;;;5.03;4.53;;;;;;;-142.70;100.00;60390.16;4734229;30;20027;-75
2021/05/05 07:55:26;;;;;;;5.45;4.90;;;;;;;-142.70;100.00;60390.16;4750892;30;20481;-74
2021/05/05 07:57:51;;;;;;;5.90;4.85;;;;;;;-142.70;100.00;60390.16;4734568;30;20032;-74
2021/05/05 08:00:17;;;;;;;5.25;4.85;;;;;;;-142.70;100.00;60390.16;4721259;30;20496;-74
2021/05/05 08:02:43;;;;;;;7.72;5.05;;;;;;;-142.70;100.00;60390.16;4720678;30;20097;-74
2021/05/05 08:05:08;;;;;;;4.90;4.50;;;;;;;-142.70;100.00;60390.16;4749527;30;20048;-75
2021/05/05 08:07:34;;;;;;;18.33;5.40;;;;;;;-142.70;100.00;60390.16;4750596;30;20077;-74
2021/05/05 08:09:59;;;;;;;5.63;4.97;;;;;;;-142.70;100.00;60390.16;4733770;30;20089;-75
2021/05/05 08:12:25;;;;;;;4.90;4.47;;;;;;;-142.70;100.00;60390.16;4750790;30;20039;-74
2021/05/05 08:14:51;;;;;;;6.55;4.43;;;;;;;-142.70;100.00;60390.16;4749174;30;20411;-77
2021/05/05 08:17:18;;;;;;;5.20;4.38;;;;;;;-142.70;100.00;60390.16;4735197;30;20063;-77
2021/05/05 08:19:43;;;;;;;5.07;4.38;;;;;;;-142.70;100.00;60390.16;4765604;30;20158;-74
2021/05/05 08:22:09;;;;;;;4.30;3.83;;;;;;;-142.70;100.00;60390.16;4749533;30;20035;-75
2021/05/05 08:24:34;;;;;;;4.13;3.65;;;;;;;-142.70;100.00;60390.16;4766151;30;20028;-75
2021/05/05 08:27:00;;;;;;;4.50;4.10;;;;;;;-142.70;100.00;60390.16;4764437;30;20155;-75
2021/05/05 08:29:28;;;;;;;4.15;3.85;;;;;;;-142.70;100.00;60390.16;4750343;30;20032;-77
2021/05/05 08:31:57;;;;;;;4.45;4.05;;;;;;;-142.70;100.00;60390.16;4748983;30;20100;-76
2021/05/05 08:34:22;;;;;;;4.95;3.95;;;;;;;-142.70;100.00;60390.16;4766257;30;20446;-77
2021/05/05 08:36:48;;;;;;;5.28;4.60;;;;;;;-142.70;100.00;60390.16;4764636;30;20044;-77
2021/05/05 08:39:14;;;;;;;6.07;4.43;;;;;;;-142.70;100.00;60390.16;4765660;30;20028;-77
2021/05/05 08:41:39;;;;;;;4.47;3.78;;;;;;;-142.70;100.00;60390.16;4765857;30;20031;-78
2021/05/05 08:44:11;;;;;;;4.40;4.00;;;;;;;-142.70;100.00;60390.16;4748739;30;20024;-74
2021/05/05 08:46:38;;;;;;;5.45;4.15;;;;;;;-142.70;100.00;60390.16;4735093;30;20069;-74
2021/05/05 08:49:04;;;;;;;4.22;3.85;;;;;;;-142.70;100.00;60390.16;4731323;30;20056;-75
2021/05/05 08:51:29;;;;;;;4.43;4.13;;;;;;;-142.70;100.00;60390.16;4720290;30;20151;-74
2021/05/05 08:53:55;;;;;;;4.65;4.25;;;;;;;-142.70;100.00;60390.16;4747366;30;20074;-74
2021/05/05 08:56:20;;;;;;;4.78;4.05;;;;;;;-142.70;100.00;60390.16;4719875;30;20094;-75
2021/05/05 08:58:46;;;;;;;4.20;3.83;;;;;;;-142.70;100.00;60390.16;4734124;30;20031;-76
2021/05/05 09:01:11;;;;;;;5.38;3.70;;;;;;;-142.70;100.00;60390.16;4733710;30;20047;-75
2021/05/05 09:03:42;;;;;;;5.65;4.40;;;;;;;-142.70;100.00;60390.16;4720522;30;20032;-74
2021/05/05 09:06:07;;;;;;;5.70;4.22;;;;;;;-142.70;100.00;60390.16;4733978;30;20031;-77
2021/05/05 09:08:33;;;;;;;5.50;3.70;;;;;;;-142.70;100.00;60390.16;4733702;30;20934;-77
2021/05/05 09:11:09;;;;;;;4.13;3.78;;;;;;;-142.70;100.00;60390.16;4732032;30;20498;-78
2021/05/05 09:13:49;;;;;;;4.10;3.78;;;;;;;-142.70;100.00;60390.16;4734990;30;20032;-77
2021/05/05 09:16:25;;;;;;;4.57;4.18;;;;;;;-142.70;100.00;60390.16;4763099;30;20097;-78
2021/05/05 09:18:52;;;;;;;5.72;3.67;;;;;;;-142.70;100.00;60390.16;4715201;30;20043;-77
2021/05/05 09:21:36;;;;;;;3.90;3.60;;;;;;;-142.70;100.00;60390.16;4743829;30;20028;-78
2021/05/05 09:24:27;;;;;;;3.90;3.50;;;;;;;-142.70;100.00;60390.16;4743547;30;20036;-78
2021/05/05 09:26:57;;;;;;;3.67;3.13;;;;;;;-142.70;100.00;60390.16;4740828;30;20036;-78
2021/05/05 09:29:36;;;;;;;4.22;3.92;;;;;;;-142.70;100.00;60390.16;4730348;30;20067;-77
2021/05/05 09:32:01;;;;;;;4.25;3.85;;;;;;;-142.70;100.00;60390.16;4738095;30;20047;-78
2021/05/05 09:34:27;;;;;;;3.78;3.47;;;;;;;-142.70;100.00;60390.16;4731337;30;20032;-78
2021/05/05 09:36:59;;;;;;;4.03;3.72;;;;;;;-142.70;100.00;60390.16;4748328;30;20108;-77
2021/05/05 09:39:33;;;;;;;4.80;3.80;;;;;;;-142.70;100.00;60390.16;4723663;30;20477;-78
2021/05/05 09:41:58;;;;;;;4.68;3.40;;;;;;;-142.70;100.00;60390.16;4737407;30;20036;-77
2021/05/05 09:44:24;;;;;;;3.60;3.30;;;;;;;-142.70;100.00;60390.16;4752236;30;20035;-78
2021/05/05 09:46:51;;;;;;;3.97;3.50;;;;;;;-142.70;100.00;60390.16;4738168;30;20514;-77
2021/05/05 09:49:19;;;;;;;4.15;3.75;;;;;;;-142.70;100.00;60390.16;4736700;30;20040;-78
2021/05/05 09:51:52;;;;;;;4.78;4.28;;;;;;;-142.70;100.00;60390.16;4768842;30;20491;-77
2021/05/05 09:54:24;;;;;;;4.38;3.97;;;;;;;-142.70;100.00;60390.16;4752136;30;20031;-77
2021/05/05 09:56:50;;;;;;;4.05;3.72;;;;;;;-142.70;100.00;60390.16;4752704;30;20031;-77
2021/05/05 09:59:15;;;;;;;6.25;3.42;;;;;;;-142.70;100.00;60390.16;4722856;30;20112;-77
2021/05/05 10:01:41;;;;;;;18.60;4.38;;;;;;;-142.70;100.00;60390.16;4751443;30;20056;-76
2021/05/05 10:04:07;;;;;;;4.13;3.45;;;;;;;-142.70;100.00;60390.16;4752910;30;20036;-77
2021/05/05 10:06:40;;;;;;;3.63;3.20;;;;;;;-142.70;100.00;60390.16;4736281;30;20035;-77
2021/05/05 10:09:06;;;;;;;4.55;3.03;;;;;;;-142.70;100.00;60390.16;4739097;30;20426;-77
2021/05/05 10:11:39;;;;;;;3.75;3.15;;;;;;;-142.70;100.00;60390.16;4750938;30;20549;-77
2021/05/05 10:14:06;;;;;;;3.40;2.72;;;;;;;-142.70;100.00;60390.16;4737746;30;20414;-77
2021/05/05 10:16:37;;;;;;;2.70;2.50;;;;;;;-142.70;100.00;60390.16;4736964;30;20097;-78
2021/05/05 10:19:12;;;;;;;2.88;2.60;;;;;;;-142.70;100.00;60390.16;4751562;30;20038;-77
2021/05/05 10:21:53;;;;;;;2.45;2.25;;;;;;;-142.70;100.00;60390.16;4752561;30;20035;-77
2021/05/05 10:24:21;;;;;;;2.85;2.50;;;;;;;-142.70;100.00;60390.16;4736380;30;20063;-77
2021/05/05 10:26:47;;;;;;;6.07;3.47;;;;;;;-142.70;100.00;60390.16;4737519;30;20036;-77
2021/05/05 10:29:13;;;;;;;5.50;3.53;;;;;;;-142.70;100.00;60390.16;4736764;30;20031;-76
2021/05/05 10:31:39;;;;;;;3.83;3.08;;;;;;;-142.70;100.00;60390.16;4737068;30;20050;-77
2021/05/05 10:34:16;;;;;;;5.32;3.70;;;;;;;-142.70;100.00;60390.16;4737278;30;20031;-77
2021/05/05 10:36:51;;;;;;;3.95;3.53;;;;;;;-142.70;100.00;60390.16;4736588;30;20126;-77
2021/05/05 10:39:16;;;;;;;6.22;3.50;;;;;;;-142.70;100.00;60390.16;4738428;30;20578;-78
2021/05/05 10:41:42;;;;;;;6.70;5.05;;;;;;;-142.70;100.00;60390.16;4766334;30;20067;-77
2021/05/05 10:44:07;;;;;;;3.67;3.38;;;;;;;-142.70;100.00;60390.16;4737162;30;20463;-77
2021/05/05 10:46:34;;;;;;;5.85;3.20;;;;;;;-142.70;100.00;60390.16;4750416;30;20040;-76
2021/05/05 10:49:00;;;;;;;5.20;3.15;;;;;;;-142.70;100.00;60390.16;4751378;30;20118;-77
2021/05/05 10:51:29;;;;;;;3.10;2.80;;;;;;;-142.70;100.00;60390.16;4751431;30;20498;-76
2021/05/05 10:53:55;;;;;;;3.65;3.35;;;;;;;-142.70;100.00;60390.16;4736330;30;20490;-77
2021/05/05 10:56:24;;;;;;;3.15;2.70;;;;;;;-142.70;100.00;60390.16;4736905;30;20083;-77
2021/05/05 10:59:07;;;;;;;3.15;2.65;;;;;;;-142.70;100.00;60390.16;4749982;30;20042;-77
2021/05/05 11:01:37;;;;;;;3.42;2.70;;;;;;;-142.70;100.00;60390.16;4751657;30;20474;-77
2021/05/05 11:04:04;;;;;;;4.57;2.90;;;;;;;-142.70;100.00;60390.16;4736148;30;20145;-77
2021/05/05 11:06:32;;;;;;;2.58;2.35;;;;;;;-142.70;100.00;60390.16;4736074;30;20034;-77
2021/05/05 11:09:13;;;;;;;2.78;2.58;;;;;;;-142.70;100.00;60390.16;4767913;30;20058;-77
2021/05/05 11:11:40;;;;;;;4.13;2.42;;;;;;;-142.70;100.00;60390.16;4765700;30;20513;-78
2021/05/05 11:14:06;;;;;;;4.70;2.70;;;;;;;-142.70;100.00;60390.16;4751665;30;20090;-77
2021/05/05 11:17:07;;;;;;;3.42;2.65;;;;;;;-142.70;100.00;60390.16;4749787;30;20472;-77
2021/05/05 11:19:40;;;;;;;3.13;2.60;;;;;;;-142.70;100.00;60390.16;4662219;30;20060;-77
2021/05/05 11:22:23;;;;;;;4.50;2.72;;;;;;;-142.70;100.00;60390.16;4737973;30;20044;-77
2021/05/05 11:24:50;;;;;;;3.47;2.63;;;;;;;-142.70;100.00;60390.16;4762753;30;20194;-77
2021/05/05 11:27:16;;;;;;;2.63;2.20;;;;;;;-142.70;100.00;60390.16;4733726;30;20407;-77
2021/05/05 11:29:47;;;;;;;3.78;2.05;;;;;;;-142.70;100.00;60390.16;4724682;30;20040;-77
2021/05/05 11:32:16;;;;;;;3.75;2.35;;;;;;;-142.70;100.00;60390.16;4747977;30;20429;-77
2021/05/05 11:34:45;;;;;;;;;;;;;;;-142.70;100.00;60390.16;4744687;30;20031;-76
2021/05/05 11:37:18;;;;;;;7.78;2.92;;;;;;;-142.70;100.00;60390.16;4743468;30;19956;-78
2021/05/05 11:39:52;;;;;;;4.50;2.30;;;;;;;-142.70;100.00;60390.16;4746306;30;20040;-77
2021/05/05 11:42:28;;;;;;;5.57;3.97;;;;;;;-142.70;100.00;60390.16;4734045;30;20039;-78
2021/05/05 11:44:54;;;;;;;5.20;2.65;;;;;;;-142.70;100.00;60390.16;4735655;30;20122;-77
2021/05/05 11:47:28;;;;;;;3.45;2.50;;;;;;;-142.70;100.00;60390.16;4735472;30;20498;-77
2021/05/05 11:49:57;;;;;;;4.03;2.70;;;;;;;-142.70;100.00;60390.16;4749770;30;20119;-77
2021/05/05 11:52:32;;;;;;;3.60;2.42;;;;;;;-142.70;100.00;60390.16;4721668;30;20096;-77
2021/05/05 11:55:13;;;;;;;4.20;2.47;;;;;;;-142.70;100.00;60390.16;4748956;30;20085;-77
2021/05/05 11:57:44;;;;;;;2.30;2.10;;;;;;;-142.70;100.00;60390.16;4750476;30;20032;-77
2021/05/05 12:00:11;;;;;;;3.35;2.60;;;;;;;-142.70;100.00;60390.16;4735140;30;20035;-77
2021/05/05 12:02:49;;;;;;;3.35;2.10;;;;;;;-142.70;100.00;60390.16;4742785;30;20078;-78
2021/05/05 12:05:21;;;;;;;2.55;1.98;;;;;;;-142.70;100.00;60390.16;4722802;30;20040;-78
2021/05/05 12:08:02;;;;;;;4.60;2.30;;;;;;;-142.70;100.00;60390.16;4735157;30;20418;-77
2021/05/05 12:10:33;;;;;;;3.20;2.00;;;;;;;-142.70;100.00;60390.16;4725168;30;20218;-78
2021/05/05 12:13:15;;;;;;;4.55;1.70;;;;;;;-142.70;100.00;60390.16;4747054;30;20469;-77
2021/05/05 12:15:49;;;;;;;2.25;2.00;;;;;;;-142.70;100.00;60390.16;4718442;30;20036;-76
2021/05/05 12:18:22;;;;;;;4.78;2.15;;;;;;;-142.70;100.00;60390.16;4719437;30;20162;-77
2021/05/05 12:20:48;;;;;;;2.30;1.88;;;;;;;-142.70;100.00;60390.16;4731093;30;20512;-77
2021/05/05 12:23:14;;;;;;;2.17;1.98;;;;;;;-142.70;100.00;60390.16;4718263;30;20557;-77
2021/05/05 12:25:40;;;;;;;2.53;1.95;;;;;;;-142.70;100.00;60390.16;4730871;30;20066;-76
2021/05/05 12:28:16;;;;;;;3.40;2.30;;;;;;;-142.70;100.00;60390.16;4732358;30;20485;-77
2021/05/05 12:30:47;;;;;;;3.83;2.40;;;;;;;-142.70;100.00;60390.16;4732072;30;20054;-77
2021/05/05 12:33:13;;;;;;;3.00;2.47;;;;;;;-142.70;100.00;60390.16;4747542;30;20038;-77
2021/05/05 12:35:39;;;;;;;2.58;2.22;;;;;;;-142.70;100.00;60390.16;4718203;30;20040;-77
2021/05/05 12:38:06;;;;;;;3.75;2.35;;;;;;;-142.70;100.00;60390.16;4715876;30;20036;-77
2021/05/05 12:40:32;;;;;;;6.43;2.60;;;;;;;-142.70;100.00;60390.16;4717299;30;20036;-77
2021/05/05 12:43:14;;;;;;;3.20;2.00;;;;;;;-142.70;100.00;60390.16;4716186;30;20107;-77
2021/05/05 12:45:40;;;;;;;2.58;2.05;;;;;;;-142.70;100.00;60390.16;4731717;30;20036;-77
2021/05/05 12:48:06;;;;;;;3.05;2.25;;;;;;;-142.70;100.00;60390.16;4715664;30;20066;-77
2021/05/05 12:50:42;;;;;;;3.67;2.20;;;;;;;-142.70;100.00;60390.16;4701547;30;20036;-77
2021/05/05 12:53:08;;;;;;;3.53;2.50;;;;;;;-142.70;100.00;60390.16;4702534;30;20415;-77
2021/05/05 12:55:35;;;;;;;2.53;2.30;;;;;;;-142.70;100.00;60390.16;4716330;30;20418;-77
2021/05/05 12:58:01;;;;;;;8.30;2.70;;;;;;;-142.70;100.00;60390.16;4728864;30;20114;-77
2021/05/05 13:00:26;;;;;;;4.35;2.40;;;;;;;-142.70;100.00;60390.16;4747043;30;20123;-77
2021/05/05 13:03:09;;;;;;;4.70;2.60;;;;;;;-142.70;100.00;60390.16;4717065;30;20062;-77
2021/05/05 13:05:54;;;;;;;4.78;2.45;;;;;;;-142.70;100.00;60390.16;4704187;30;20953;-78
2021/05/05 13:08:28;;;;;;;3.22;2.53;;;;;;;-142.70;100.00;60390.16;4723500;30;20510;-77
2021/05/05 13:10:53;;;;;;;2.67;2.22;;;;;;;-142.70;100.00;60390.16;4717451;30;20491;-76
2021/05/05 13:13:21;;;;;;;3.38;2.33;;;;;;;-142.70;100.00;60390.16;4729554;30;20028;-77
2021/05/05 13:30:20;;;;;;;3.95;2.42;;;;;;;-142.70;100.00;60390.16;4720419;30;20043;-77
2021/05/05 13:33:07;;;;;;;2.67;2.10;;;;;;;-142.70;100.00;60390.16;4732855;30;20032;-76
2021/05/05 13:35:55;;;;;;;3.25;2.95;;;;;;;-142.70;100.00;60390.16;4730867;30;20082;-76
2021/05/05 13:38:31;;;;;;;3.42;2.53;;;;;;;-142.70;100.00;60390.16;4715635;30;20040;-77
2021/05/05 13:41:02;;;;;;;2.95;2.30;;;;;;;-142.70;100.00;60390.16;4710698;30;20047;-76
2021/05/05 13:46:36;;;;;;;2.90;2.25;;;;;;;-142.70;100.00;60390.16;4715734;30;20124;-77
2021/05/05 13:49:05;;;;;;;;;;;;;;;-142.70;100.00;60390.16;4690792;30;20518;-76
2021/05/05 13:51:30;;;;;;;3.47;2.20;;;;;;;-142.70;100.00;60390.16;4728398;30;19918;-76
2021/05/05 13:53:56;;;;;;;3.00;2.20;;;;;;;-142.70;100.00;60390.16;4699941;30;20044;-76
2021/05/05 13:56:25;;;;;;;2.47;2.28;;;;;;;-142.70;100.00;60390.16;4698770;30;20044;-76
2021/05/05 13:58:50;;;;;;;2.42;2.05;;;;;;;-142.70;100.00;60390.16;4716914;30;20127;-76
2021/05/05 14:01:16;;;;;;;2.80;2.53;;;;;;;-142.70;100.00;60390.16;4717278;30;20431;-76
2021/05/05 14:03:41;;;;;;;3.42;2.65;;;;;;;-142.70;100.00;60390.16;4725704;30;20411;-76
2021/05/05 14:06:07;;;;;;;3.85;2.13;;;;;;;-142.70;100.00;60390.16;4724053;30;20028;-76
2021/05/05 14:08:33;;;;;;;4.53;2.25;;;;;;;-142.70;100.00;60390.16;4745643;30;20111;-76
2021/05/05 14:11:00;;;;;;;2.35;2.20;;;;;;;-142.70;100.00;60390.16;4739207;30;20514;-76
2021/05/05 14:13:25;;;;;;;2.88;2.40;;;;;;;-142.70;100.00;60390.16;4763065;30;20031;-77
2021/05/05 14:15:52;;;;;;;6.35;2.90;;;;;;;-142.70;100.00;60390.16;4728676;30;20039;-77
2021/05/05 14:18:18;;;;;;;3.67;2.60;;;;;;;-142.70;100.00;60390.16;4733009;30;20403;-77
2021/05/05 14:20:43;;;;;;;3.72;2.35;;;;;;;-142.70;100.00;60390.16;4731660;30;20074;-77
2021/05/05 14:23:10;;;;;;;3.15;2.63;;;;;;;-142.70;100.00;60390.16;4734291;30;20031;-77
2021/05/05 14:25:36;;;;;;;4.90;2.72;;;;;;;-142.70;100.00;60390.16;4736123;30;20084;-77
2021/05/05 14:28:02;;;;;;;4.43;2.83;;;;;;;-142.70;100.00;60390.16;4737541;30;20483;-77
2021/05/05 14:30:28;;;;;;;5.22;2.88;;;;;;;-142.70;100.00;60390.16;4736060;30;20039;-77
2021/05/05 14:32:54;;;;;;;2.92;2.30;;;;;;;-142.70;100.00;60390.16;4751757;30;20040;-77
2021/05/05 14:35:23;;;;;;;;;;;;;;;-142.70;100.00;60390.16;4721791;30;20028;-78
2021/05/05 14:37:53;;;;;;;3.33;2.35;;;;;;;-142.70;100.00;60390.16;4737534;30;20055;-78
2021/05/05 14:40:19;;;;;;;5.00;3.00;;;;;;;-142.70;100.00;60390.16;4767105;30;20120;-77
2021/05/05 14:42:51;;;;;;;9.38;3.33;;;;;;;-142.70;100.00;60390.16;4750914;30;20483;-78
2021/05/05 14:50:22;;;;;;;5.32;2.75;;;;;;;-142.70;100.00;60390.16;4740030;30;20586;-77
2021/05/05 14:52:48;;;;;;;3.65;2.70;;;;;;;-142.70;100.00;60390.16;4735973;30;20134;-77
2021/05/05 14:55:14;;;;;;;3.50;2.60;;;;;;;-142.70;100.00;60390.16;4736934;30;20031;-77
2021/05/05 14:57:41;;;;;;;3.38;3.10;;;;;;;-142.70;100.00;60390.16;4736031;30;20050;-77
2021/05/05 15:00:08;;;;;;;7.05;4.10;;;;;;;-142.70;100.00;60390.16;4751123;30;20625;-78
2021/05/05 15:02:34;;;;;;;2.00;1.80;;;;;;;-142.70;100.00;60390.16;4750282;30;20518;-78
2021/05/05 15:04:59;;;;;;;4.65;1.20;;;;;;;-142.70;100.00;60390.16;4733996;30;20047;-78
2021/05/05 15:07:26;;;;;;;12.50;1.98;;;;;;;-142.70;100.00;60390.16;4735500;30;20096;-78
2021/05/05 15:29:11;;;;;;;3.95;0.90;;;;;;;-142.70;100.00;60390.16;4739963;30;20122;-77
2021/05/05 15:34:25;;;;;;;3.13;1.15;;;;;;;-142.70;100.00;60390.16;4738449;30;20067;-78
2021/05/05 15:36:52;;;;;;;4.03;0.90;;;;;;;-142.70;100.00;60390.16;4739485;30;20063;-77
2021/05/05 15:39:37;;;;;;;6.03;0.85;;;;;;;-142.70;100.00;60390.16;4733494;30;20058;-78
2021/05/05 15:42:04;;;;;;;5.68;1.08;;;;;;;-142.70;100.00;60390.16;4750807;30;20040;-78
2021/05/05 15:44:49;;;;;;;8.32;0.93;;;;;;;-142.70;100.00;60390.16;4745906;30;20040;-77
2021/05/05 15:47:17;;;;;;;6.45;1.25;;;;;;;-142.70;100.00;60390.16;4750398;30;20111;-78
2021/05/05 15:49:48;;;;;;;6.75;1.10;;;;;;;-142.70;100.00;60390.16;4746440;30;20031;-78
2021/05/05 15:52:14;;;;;;;4.82;1.00;;;;;;;-142.70;100.00;60390.16;4714484;30;20113;-77
2021/05/05 15:54:39;;;;;;;5.05;1.25;;;;;;;-142.70;100.00;60390.16;4726379;30;20134;-78
2021/05/05 15:57:08;;;;;;;4.43;0.85;;;;;;;-142.70;100.00;60390.16;4741061;30;20695;-78
2021/05/05 15:59:48;;;;;;;2.80;0.90;;;;;;;-142.70;100.00;60390.16;4741115;30;20137;-77
2021/05/05 16:10:39;;;;;;;3.90;0.80;;;;;;;-142.70;100.00;60390.16;4732619;30;20058;-78
2021/05/05 16:15:36;;;;;;;2.63;0.95;;;;;;;-142.70;100.00;60390.16;4733605;30;20032;-78
2021/05/05 16:18:04;;;;;;;3.35;1.40;;;;;;;-142.70;100.00;60390.16;4730380;30;20040;-78
2021/05/05 16:20:35;;;;;;;6.90;1.60;;;;;;;-142.70;100.00;60390.16;4717242;30;20070;-77
2021/05/05 16:23:08;;;;;;;5.93;2.45;;;;;;;-142.70;100.00;60390.16;4746019;30;20028;-77
2021/05/05 16:25:46;;;;;;;3.88;2.10;;;;;;;-142.70;100.00;60390.16;4732656;30;20024;-77
2021/05/05 16:44:57;;;;;;;17.23;6.53;;;;;;;-142.70;100.00;60390.16;4732718;30;20101;-78
2021/05/05 16:47:29;;;;;;;6.53;5.88;;;;;;;-142.70;100.00;60390.16;4735794;30;20039;-77
2021/05/05 16:55:05;;;;;;;8.18;6.43;;;;;;;-142.70;100.00;60390.16;4728464;30;20531;-77
2021/05/05 17:06:05;;;;;;;6.15;5.55;;;;;;;-142.70;100.00;60390.16;4737455;30;20051;-77
2021/05/05 17:08:11;;;;;;;7.25;5.45;;;;;;;-142.70;100.00;60390.16;4744195;30;20058;-77
2021/05/05 17:10:37;;;;;;;8.57;6.15;;;;;;;-142.70;100.00;60390.16;4745224;30;20032;-77
2021/05/05 17:13:03;;;;;;;7.60;5.53;;;;;;;-142.70;100.00;60390.16;4732693;30;20412;-77
2021/05/05 17:15:44;;;;;;;5.60;5.20;;;;;;;-142.70;100.00;60390.16;4717062;30;20093;-77
2021/05/05 17:18:24;;;;;;;6.15;5.55;;;;;;;-142.70;100.00;60390.16;4733527;30;20395;-77
2021/05/05 17:21:16;;;;;;;6.28;5.78;;;;;;;-142.70;100.00;60390.16;4736330;30;20043;-77
2021/05/05 17:23:44;;;;;;;9.88;6.57;;;;;;;-142.70;100.00;60390.16;4744144;30;20044;-76
2021/05/05 18:19:19;;;;;;;6.90;4.03;;;;;;;-142.70;100.00;60390.16;4750122;30;20119;-77
2021/05/05 18:24:18;;;;;;;5.05;4.30;;;;;;;-142.70;100.00;60390.16;4749668;30;20031;-77
2021/05/05 18:29:33;;;;;;;4.50;4.10;;;;;;;-142.70;100.00;60390.16;4752672;30;20266;-77
2021/05/05 18:31:59;;;;;;;4.43;4.07;;;;;;;-142.70;100.00;60390.16;4749601;30;20127;-76
2021/05/05 18:34:24;;;;;;;4.53;4.03;;;;;;;-142.70;100.00;60390.16;4749737;30;20499;-76
2021/05/05 18:36:52;;;;;;;5.82;3.88;;;;;;;-142.70;100.00;60390.16;4733726;30;20123;-77
2021/05/05 18:39:20;;;;;;;5.22;3.83;;;;;;;-142.70;100.00;60390.16;4749812;30;20438;-77
2021/05/05 18:42:06;;;;;;;4.40;4.05;;;;;;;-142.70;100.00;60390.16;4749207;30;20038;-76
